Time,TemperatureF,DewpointF,PressureIn,WindDirection,WindDirectionDegrees,WindSpeedMPH,WindSpeedGustMPH,Humidity,HourlyPrecipIn,Conditions,Clouds,dailyrainin,SoftwareType,DateUTC
2013-06-15 00:02:00,54.0,22.0,-100.00,ESE,120,9.0,10.0,28,-99.99,,,-99.99,,2013-06-15 06:02:00,
2013-06-15 00:12:00,55.0,21.0,-100.00,ESE,119,13.0,13.0,27,-99.99,,,-99.99,,2013-06-15 06:12:00,
2013-06-15 00:24:00,54.0,22.0,-100.00,SE,126,11.0,12.0,27,-99.99,,,-99.99,,2013-06-15 06:24:00,
2013-06-15 00:33:00,53.0,21.0,-100.00,East,93,6.0,9.0,28,-99.99,,,-99.99,,2013-06-15 06:33:00,
2013-06-15 00:43:00,53.0,21.0,-100.00,East,93,6.0,9.0,28,-99.99,,,-99.99,,2013-06-15 06:43:00,
2013-06-15 00:53:00,53.0,21.0,-100.00,East,97,9.0,10.0,28,-99.99,,,-99.99,,2013-06-15 06:53:00,
2013-06-15 01:01:00,53.0,21.0,-100.00,SE,136,8.0,12.0,28,-99.99,,,-99.99,,2013-06-15 07:01:00,
2013-06-15 01:11:00,53.0,21.0,-100.00,ESE,112,9.0,11.0,28,-99.99,,,-99.99,,2013-06-15 07:11:00,
2013-06-15 01:23:00,53.0,21.0,-100.00,ESE,115,6.0,8.0,29,-99.99,,,-99.99,,2013-06-15 07:23:00,
2013-06-15 01:33:00,53.0,21.0,-100.00,ESE,115,6.0,8.0,29,-99.99,,,-99.99,,2013-06-15 07:33:00,
2013-06-15 01:43:00,53.0,21.0,-100.00,ESE,111,8.0,9.0,28,-99.99,,,-99.99,,2013-06-15 07:43:00,
2013-06-15 01:53:00,53.0,21.0,-100.00,ESE,120,8.0,9.0,27,-99.99,,,-99.99,,2013-06-15 07:53:00,
2013-06-15 02:02:00,54.0,19.0,-100.00,SE,126,9.0,13.0,24,-99.99,,,-99.99,,2013-06-15 08:02:00,
2013-06-15 02:11:00,54.0,19.0,-100.00,SE,126,9.0,13.0,24,-99.99,,,-99.99,,2013-06-15 08:11:00,
2013-06-15 02:22:00,54.0,18.0,-100.00,SE,125,8.0,10.0,24,-99.99,,,-99.99,,2013-06-15 08:22:00,
2013-06-15 02:33:00,54.0,18.0,-100.00,ESE,118,8.0,11.0,23,-99.99,,,-99.99,,2013-06-15 08:33:00,
2013-06-15 02:42:00,55.0,17.0,-100.00,SE,129,4.0,8.0,22,-99.99,,,-99.99,,2013-06-15 08:42:00,
2013-06-15 02:53:00,54.0,17.0,-100.00,ESE,119,6.0,9.0,23,-99.99,,,-99.99,,2013-06-15 08:53:00,
2013-06-15 03:02:00,54.0,17.0,-100.00,ESE,119,6.0,9.0,23,-99.99,,,-99.99,,2013-06-15 09:02:00,
2013-06-15 03:12:00,54.0,16.0,-100.00,ESE,112,5.0,8.0,22,-99.99,,,-99.99,,2013-06-15 09:12:00,
2013-06-15 03:22:00,55.0,16.0,-100.00,ESE,106,6.0,8.0,21,-99.99,,,-99.99,,2013-06-15 09:22:00,
2013-06-15 03:33:00,55.0,16.0,-100.00,East,81,8.0,11.0,20,-99.99,,,-99.99,,2013-06-15 09:33:00,
2013-06-15 03:43:00,54.0,16.0,-100.00,East,93,4.0,5.0,22,-99.99,,,-99.99,,2013-06-15 09:43:00,
2013-06-15 03:52:00,54.0,16.0,-100.00,East,93,4.0,5.0,22,-99.99,,,-99.99,,2013-06-15 09:52:00,
2013-06-15 04:02:00,54.0,17.0,-100.00,ESE,104,6.0,8.0,23,-99.99,,,-99.99,,2013-06-15 10:02:00,
2013-06-15 04:11:00,54.0,17.0,-100.00,ESE,104,6.0,8.0,23,-99.99,,,-99.99,,2013-06-15 10:11:00,
2013-06-15 04:23:00,54.0,17.0,-100.00,East,100,6.0,9.0,23,-99.99,,,-99.99,,2013-06-15 10:23:00,
2013-06-15 04:33:00,53.0,18.0,-100.00,ESE,121,8.0,8.0,24,-99.99,,,-99.99,,2013-06-15 10:33:00,
2013-06-15 04:43:00,52.0,17.0,-100.00,ESE,118,8.0,8.0,24,-99.99,,,-99.99,,2013-06-15 10:43:00,
2013-06-15 04:53:00,52.0,17.0,-100.00,ESE,118,8.0,8.0,24,-99.99,,,-99.99,,2013-06-15 10:53:00,
2013-06-15 05:01:00,52.0,17.0,-100.00,SE,124,7.0,8.0,25,-99.99,,,-99.99,,2013-06-15 11:01:00,
2013-06-15 05:11:00,51.0,18.0,-100.00,ESE,119,7.0,8.0,26,-99.99,,,-99.99,,2013-06-15 11:11:00,
2013-06-15 05:22:00,52.0,18.0,-100.00,ESE,118,7.0,8.0,25,-99.99,,,-99.99,,2013-06-15 11:22:00,
2013-06-15 05:33:00,51.0,18.0,-100.00,ESE,118,7.0,9.0,26,-99.99,,,-99.99,,2013-06-15 11:33:00,
2013-06-15 05:43:00,51.0,18.0,-100.00,ESE,118,8.0,9.0,26,-99.99,,,-99.99,,2013-06-15 11:43:00,
2013-06-15 05:53:00,51.0,18.0,-100.00,ESE,118,8.0,9.0,26,-99.99,,,-99.99,,2013-06-15 11:53:00,
2013-06-15 06:01:00,51.0,19.0,-100.00,ESE,121,8.0,8.0,27,-99.99,,,-99.99,,2013-06-15 12:01:00,
2013-06-15 06:11:00,51.0,19.0,-100.00,ESE,121,8.0,8.0,27,-99.99,,,-99.99,,2013-06-15 12:11:00,
2013-06-15 06:22:00,51.0,19.0,-100.00,ESE,111,5.0,7.0,27,-99.99,,,-99.99,,2013-06-15 12:22:00,
2013-06-15 06:33:00,51.0,19.0,-100.00,ESE,120,6.0,6.0,27,-99.99,,,-99.99,,2013-06-15 12:33:00,
2013-06-15 06:43:00,52.0,19.0,-100.00,ESE,114,6.0,7.0,27,-99.99,,,-99.99,,2013-06-15 12:43:00,
2013-06-15 06:52:00,52.0,19.0,-100.00,ESE,114,6.0,7.0,27,-99.99,,,-99.99,,2013-06-15 12:52:00,
2013-06-15 07:02:00,51.0,20.0,-100.00,ESE,107,4.0,7.0,28,-99.99,,,-99.99,,2013-06-15 13:02:00,
2013-06-15 07:11:00,53.0,19.0,-100.00,ESE,110,7.0,8.0,26,-99.99,,,-99.99,,2013-06-15 13:11:00,
2013-06-15 07:22:00,54.0,21.0,-100.00,ESE,116,7.0,7.0,27,-99.99,,,-99.99,,2013-06-15 13:22:00,
2013-06-15 07:32:00,54.0,21.0,-100.00,ESE,116,7.0,7.0,27,-99.99,,,-99.99,,2013-06-15 13:32:00,
2013-06-15 07:43:00,55.0,20.0,-100.00,ESE,116,6.0,7.0,25,-99.99,,,-99.99,,2013-06-15 13:43:00,
2013-06-15 07:53:00,55.0,20.0,-100.00,ESE,116,6.0,7.0,25,-99.99,,,-99.99,,2013-06-15 13:53:00,
2013-06-15 08:01:00,56.0,22.0,-100.00,ESE,111,6.0,7.0,26,-99.99,,,-99.99,,2013-06-15 14:01:00,
2013-06-15 08:12:00,57.0,22.0,-100.00,East,82,6.0,7.0,26,-99.99,,,-99.99,,2013-06-15 14:12:00,
2013-06-15 08:22:00,57.0,22.0,-100.00,East,82,6.0,7.0,26,-99.99,,,-99.99,,2013-06-15 14:22:00,
2013-06-15 08:34:00,58.0,23.0,-100.00,ESE,112,5.0,8.0,25,-99.99,,,-99.99,,2013-06-15 14:34:00,
2013-06-15 08:43:00,59.0,23.0,-100.00,East,101,6.0,8.0,24,-99.99,,,-99.99,,2013-06-15 14:43:00,
2013-06-15 08:53:00,59.0,23.0,-100.00,East,101,6.0,8.0,24,-99.99,,,-99.99,,2013-06-15 14:53:00,
2013-06-15 09:01:00,60.0,23.0,-100.00,ENE,74,7.0,8.0,24,-99.99,,,-99.99,,2013-06-15 15:01:00,
2013-06-15 09:11:00,60.0,23.0,-100.00,ENE,67,7.0,9.0,24,-99.99,,,-99.99,,2013-06-15 15:11:00,
2013-06-15 09:22:00,60.0,24.0,-100.00,East,82,6.0,9.0,24,-99.99,,,-99.99,,2013-06-15 15:22:00,
2013-06-15 09:33:00,60.0,24.0,-100.00,ENE,67,7.0,10.0,24,-99.99,,,-99.99,,2013-06-15 15:33:00,
2013-06-15 09:42:00,61.0,26.0,-100.00,East,87,7.0,11.0,26,-99.99,,,-99.99,,2013-06-15 15:42:00,
2013-06-15 09:53:00,61.0,26.0,-100.00,East,87,7.0,11.0,26,-99.99,,,-99.99,,2013-06-15 15:53:00,
2013-06-15 10:01:00,61.0,26.0,-100.00,ENE,68,7.0,10.0,26,-99.99,,,-99.99,,2013-06-15 16:01:00,
2013-06-15 10:11:00,62.0,26.0,-100.00,East,100,4.0,8.0,25,-99.99,,,-99.99,,2013-06-15 16:11:00,
2013-06-15 10:22:00,63.0,27.0,-100.00,East,82,6.0,7.0,25,-99.99,,,-99.99,,2013-06-15 16:22:00,
2013-06-15 10:33:00,64.0,26.0,-100.00,ENE,74,4.0,6.0,23,-99.99,,,-99.99,,2013-06-15 16:33:00,
2013-06-15 10:43:00,66.0,27.0,-100.00,SE,127,2.0,7.0,23,-99.99,,,-99.99,,2013-06-15 16:43:00,
2013-06-15 10:53:00,66.0,27.0,-100.00,SE,127,2.0,7.0,23,-99.99,,,-99.99,,2013-06-15 16:53:00,
2013-06-15 11:01:00,67.0,26.0,-100.00,WSW,243,4.0,9.0,21,-99.99,,,-99.99,,2013-06-15 17:01:00,
2013-06-15 11:11:00,67.0,26.0,-100.00,West,274,10.0,13.0,21,-99.99,,,-99.99,,2013-06-15 17:11:00,
2013-06-15 11:21:00,67.0,26.0,-100.00,WSW,258,8.0,12.0,21,-99.99,,,-99.99,,2013-06-15 17:21:00,
2013-06-15 11:32:00,67.0,26.0,-100.00,West,271,7.0,12.0,20,-99.99,,,-99.99,,2013-06-15 17:32:00,
2013-06-15 11:43:00,69.0,27.0,-100.00,WSW,254,10.0,14.0,20,-99.99,,,-99.99,,2013-06-15 17:43:00,
2013-06-15 11:52:00,69.0,27.0,-100.00,WSW,254,10.0,14.0,20,-99.99,,,-99.99,,2013-06-15 17:52:00,
2013-06-15 12:01:00,70.0,27.0,-100.00,West,267,8.0,11.0,20,-99.99,,,-99.99,,2013-06-15 18:01:00,
2013-06-15 12:11:00,70.0,25.0,-100.00,WSW,249,5.0,14.0,18,-99.99,,,-99.99,,2013-06-15 18:11:00,
2013-06-15 12:22:00,70.0,25.0,-100.00,WSW,249,5.0,14.0,18,-99.99,,,-99.99,,2013-06-15 18:22:00,
2013-06-15 12:32:00,71.0,25.0,-100.00,WNW,284,8.0,15.0,17,-99.99,,,-99.99,,2013-06-15 18:32:00,
2013-06-15 12:43:00,72.0,20.0,-100.00,West,270,14.0,18.0,14,-99.99,,,-99.99,,2013-06-15 18:43:00,
2013-06-15 12:53:00,73.0,19.0,-100.00,West,277,13.0,18.0,13,-99.99,,,-99.99,,2013-06-15 18:53:00,
2013-06-15 13:01:00,72.0,19.0,-100.00,West,268,8.0,19.0,13,-99.99,,,-99.99,,2013-06-15 19:01:00,
2013-06-15 13:11:00,72.0,18.0,-100.00,WNW,282,17.0,22.0,12,-99.99,,,-99.99,,2013-06-15 19:11:00,
2013-06-15 13:22:00,72.0,19.0,-100.00,West,280,13.0,22.0,13,-99.99,,,-99.99,,2013-06-15 19:22:00,
2013-06-15 13:32:00,72.0,18.0,-100.00,WNW,282,14.0,20.0,12,-99.99,,,-99.99,,2013-06-15 19:32:00,
2013-06-15 13:43:00,73.0,17.0,-100.00,WNW,285,15.0,23.0,12,-99.99,,,-99.99,,2013-06-15 19:43:00,
2013-06-15 13:52:00,73.0,17.0,-100.00,WNW,285,15.0,23.0,12,-99.99,,,-99.99,,2013-06-15 19:52:00,
2013-06-15 14:01:00,75.0,17.0,-100.00,West,266,18.0,25.0,11,-99.99,,,-99.99,,2013-06-15 20:01:00,
2013-06-15 14:11:00,75.0,17.0,-100.00,West,266,18.0,25.0,11,-99.99,,,-99.99,,2013-06-15 20:11:00,
2013-06-15 14:22:00,74.0,17.0,-100.00,West,278,11.0,21.0,11,-99.99,,,-99.99,,2013-06-15 20:22:00,
2013-06-15 14:33:00,74.0,12.0,-100.00,West,278,19.0,25.0,9,-99.99,,,-99.99,,2013-06-15 20:33:00,
2013-06-15 14:43:00,73.0,14.0,-100.00,West,266,13.0,21.0,10,-99.99,,,-99.99,,2013-06-15 20:43:00,
2013-06-15 14:52:00,74.0,15.0,-100.00,West,260,17.0,26.0,10,-99.99,,,-99.99,,2013-06-15 20:52:00,
2013-06-15 15:01:00,74.0,15.0,-100.00,West,260,17.0,26.0,10,-99.99,,,-99.99,,2013-06-15 21:01:00,
2013-06-15 15:11:00,73.0,14.0,-100.00,West,273,19.0,24.0,10,-99.99,,,-99.99,,2013-06-15 21:11:00,
2013-06-15 15:22:00,75.0,16.0,-100.00,West,262,19.0,26.0,10,-99.99,,,-99.99,,2013-06-15 21:22:00,
2013-06-15 15:33:00,75.0,16.0,-100.00,West,272,19.0,27.0,10,-99.99,,,-99.99,,2013-06-15 21:33:00,
2013-06-15 15:42:00,76.0,17.0,-100.00,WSW,245,17.0,27.0,10,-99.99,,,-99.99,,2013-06-15 21:42:00,
2013-06-15 15:52:00,76.0,17.0,-100.00,WSW,245,17.0,27.0,10,-99.99,,,-99.99,,2013-06-15 21:52:00,
2013-06-15 16:01:00,76.0,14.0,-100.00,WSW,251,17.0,25.0,9,-99.99,,,-99.99,,2013-06-15 22:01:00,
2013-06-15 16:11:00,76.0,14.0,-100.00,WSW,251,17.0,25.0,9,-99.99,,,-99.99,,2013-06-15 22:11:00,
2013-06-15 16:22:00,76.0,14.0,-100.00,WSW,243,21.0,34.0,9,-99.99,,,-99.99,,2013-06-15 22:22:00,
2013-06-15 16:32:00,77.0,12.0,-100.00,West,259,19.0,33.0,8,-99.99,,,-99.99,,2013-06-15 22:32:00,
2013-06-15 16:42:00,75.0,13.0,-100.00,WSW,258,19.0,30.0,9,-99.99,,,-99.99,,2013-06-15 22:42:00,
2013-06-15 16:53:00,75.0,12.0,-100.00,West,263,20.0,29.0,8,-99.99,,,-99.99,,2013-06-15 22:53:00,
2013-06-15 17:01:00,75.0,8.0,-100.00,West,262,21.0,31.0,7,-99.99,,,-99.99,,2013-06-15 23:01:00,
2013-06-15 17:11:00,75.0,10.0,-100.00,West,271,17.0,22.0,7,-99.99,,,-99.99,,2013-06-15 23:11:00,
2013-06-15 17:22:00,75.0,10.0,-100.00,West,271,17.0,22.0,7,-99.99,,,-99.99,,2013-06-15 23:22:00,
2013-06-15 17:33:00,75.0,8.0,-100.00,West,270,19.0,22.0,7,-99.99,,,-99.99,,2013-06-15 23:33:00,
2013-06-15 17:42:00,75.0,10.0,-100.00,West,262,18.0,29.0,8,-99.99,,,-99.99,,2013-06-15 23:42:00,
2013-06-15 17:52:00,75.0,10.0,-100.00,WSW,257,17.0,28.0,8,-99.99,,,-99.99,,2013-06-15 23:52:00,
2013-06-15 18:01:00,75.0,11.0,-100.00,West,265,15.0,24.0,8,-99.99,,,-99.99,,2013-06-16 00:01:00,
2013-06-15 18:11:00,75.0,11.0,-100.00,West,265,15.0,24.0,8,-99.99,,,-99.99,,2013-06-16 00:11:00,
2013-06-15 18:22:00,75.0,11.0,-100.00,WSW,256,13.0,17.0,8,-99.99,,,-99.99,,2013-06-16 00:22:00,
2013-06-15 18:33:00,75.0,11.0,-100.00,WSW,256,13.0,17.0,8,-99.99,,,-99.99,,2013-06-16 00:33:00,
2013-06-15 18:43:00,75.0,11.0,-100.00,West,265,15.0,19.0,8,-99.99,,,-99.99,,2013-06-16 00:43:00,
2013-06-15 18:52:00,75.0,11.0,-100.00,West,265,15.0,19.0,8,-99.99,,,-99.99,,2013-06-16 00:52:00,
2013-06-15 19:01:00,76.0,12.0,-100.00,WSW,257,9.0,14.0,8,-99.99,,,-99.99,,2013-06-16 01:01:00,
2013-06-15 19:11:00,76.0,12.0,-100.00,WSW,257,9.0,14.0,8,-99.99,,,-99.99,,2013-06-16 01:11:00,
2013-06-15 19:22:00,76.0,12.0,-100.00,WNW,290,8.0,15.0,8,-99.99,,,-99.99,,2013-06-16 01:22:00,
2013-06-15 19:33:00,76.0,11.0,-100.00,NW,312,7.0,10.0,8,-99.99,,,-99.99,,2013-06-16 01:33:00,
2013-06-15 19:42:00,76.0,11.0,-100.00,WNW,288,5.0,7.0,8,-99.99,,,-99.99,,2013-06-16 01:42:00,
2013-06-15 19:53:00,75.0,12.0,-100.00,West,281,6.0,11.0,8,-99.99,,,-99.99,,2013-06-16 01:53:00,
2013-06-15 20:01:00,76.0,11.0,-100.00,West,272,4.0,8.0,8,-99.99,,,-99.99,,2013-06-16 02:01:00,
2013-06-15 20:11:00,76.0,14.0,-100.00,NW,317,3.0,5.0,9,-99.99,,,-99.99,,2013-06-16 02:11:00,
2013-06-15 20:22:00,75.0,13.0,-100.00,NNW,347,5.0,7.0,9,-99.99,,,-99.99,,2013-06-16 02:22:00,
2013-06-15 20:33:00,74.0,14.0,-100.00,NNE,13,3.0,4.0,9,-99.99,,,-99.99,,2013-06-16 02:33:00,
2013-06-15 20:42:00,71.0,12.0,-100.00,NNE,18,6.0,6.0,10,-99.99,,,-99.99,,2013-06-16 02:42:00,
2013-06-15 20:53:00,69.0,23.0,-100.00,NE,40,6.0,10.0,17,-99.99,,,-99.99,,2013-06-16 02:53:00,
2013-06-15 21:01:00,69.0,26.0,-100.00,NE,41,8.0,10.0,19,-99.99,,,-99.99,,2013-06-16 03:01:00,
2013-06-15 21:11:00,68.0,27.0,-100.00,NE,48,6.0,8.0,21,-99.99,,,-99.99,,2013-06-16 03:11:00,
2013-06-15 21:22:00,68.0,27.0,-100.00,NE,48,6.0,8.0,21,-99.99,,,-99.99,,2013-06-16 03:22:00,
2013-06-15 21:33:00,68.0,27.0,-100.00,NE,47,7.0,11.0,21,-99.99,,,-99.99,,2013-06-16 03:33:00,
2013-06-15 21:43:00,67.0,27.0,-100.00,ENE,73,5.0,11.0,22,-99.99,,,-99.99,,2013-06-16 03:43:00,
2013-06-15 21:53:00,66.0,28.0,-100.00,ESE,118,9.0,11.0,24,-99.99,,,-99.99,,2013-06-16 03:53:00,
2013-06-15 22:01:00,65.0,29.0,-100.00,ESE,108,6.0,10.0,25,-99.99,,,-99.99,,2013-06-16 04:01:00,
2013-06-15 22:12:00,64.0,29.0,-100.00,East,89,4.0,7.0,26,-99.99,,,-99.99,,2013-06-16 04:12:00,
2013-06-15 22:23:00,64.0,29.0,-100.00,East,89,4.0,7.0,26,-99.99,,,-99.99,,2013-06-16 04:23:00,
2013-06-15 22:33:00,63.0,29.0,-100.00,ESE,122,4.0,4.0,27,-99.99,,,-99.99,,2013-06-16 04:33:00,
2013-06-15 22:42:00,65.0,28.0,-100.00,ESE,117,4.0,4.0,23,-99.99,,,-99.99,,2013-06-16 04:42:00,
2013-06-15 22:53:00,63.0,28.0,-100.00,ENE,76,2.0,5.0,26,-99.99,,,-99.99,,2013-06-16 04:53:00,
2013-06-15 23:01:00,62.0,27.0,-100.00,ESE,106,1.0,4.0,26,-99.99,,,-99.99,,2013-06-16 05:01:00,
2013-06-15 23:11:00,62.0,27.0,-100.00,ESE,106,1.0,4.0,26,-99.99,,,-99.99,,2013-06-16 05:11:00,
2013-06-15 23:22:00,62.0,27.0,-100.00,North,0,0.0,2.0,26,-99.99,,,-99.99,,2013-06-16 05:22:00,
2013-06-15 23:33:00,62.0,25.0,-100.00,SE,139,3.0,5.0,23,-99.99,,,-99.99,,2013-06-16 05:33:00,
2013-06-15 23:43:00,61.0,24.0,-100.00,SSW,194,2.0,4.0,24,-99.99,,,-99.99,,2013-06-16 05:43:00,
2013-06-15 23:52:00,63.0,23.0,-100.00,SE,130,6.0,6.0,21,-99.99,,,-99.99,,2013-06-16 05:52:00,